createdAt,value
2023-02-21T00:00:17.078Z,99732.00
2023-02-21T00:02:09.625Z,99733.00
2023-02-21T00:04:00.824Z,99732.00
2023-02-21T00:05:51.832Z,99725.00
2023-02-21T00:07:43.532Z,99723.00
2023-02-21T00:09:34.562Z,99733.00
2023-02-21T00:11:25.538Z,99736.00
2023-02-21T00:13:16.503Z,99722.00
2023-02-21T00:15:07.391Z,99732.00
2023-02-21T00:16:59.554Z,99729.00
2023-02-21T00:18:53.577Z,99720.00
2023-02-21T00:20:44.622Z,99732.00
2023-02-21T00:22:35.653Z,99740.00
2023-02-21T00:24:27.008Z,99737.00
2023-02-21T00:26:17.921Z,99748.00
2023-02-21T00:28:08.805Z,99741.00
2023-02-21T00:29:59.673Z,99739.00
2023-02-21T00:31:50.418Z,99739.00
2023-02-21T00:33:42.460Z,99734.00
2023-02-21T00:35:33.344Z,99727.00
2023-02-21T00:37:24.372Z,99729.00
2023-02-21T00:39:14.986Z,99735.00
2023-02-21T00:41:06.838Z,99735.00
2023-02-21T00:42:58.120Z,99728.00
2023-02-21T00:44:49.053Z,99728.00
2023-02-21T00:46:40.405Z,99736.00
2023-02-21T00:48:30.903Z,99737.00
2023-02-21T00:50:24.136Z,99731.00
2023-02-21T00:52:15.107Z,99724.00
2023-02-21T00:54:05.984Z,99728.00
2023-02-21T00:55:56.884Z,99723.00
2023-02-21T00:57:47.813Z,99720.00
2023-02-21T00:59:38.643Z,99719.00
2023-02-21T01:01:29.676Z,99725.00
2023-02-21T01:03:21.099Z,99718.00
2023-02-21T01:05:12.011Z,99717.00
2023-02-21T01:07:04.177Z,99715.00
2023-02-21T01:08:55.126Z,99719.00
2023-02-21T01:10:46.113Z,99712.00
2023-02-21T01:12:37.185Z,99708.00
2023-02-21T01:14:28.558Z,99716.00
2023-02-21T01:16:19.492Z,99721.00
2023-02-21T01:18:10.236Z,99719.00
2023-02-21T01:20:01.163Z,99715.00
2023-02-21T01:21:51.950Z,99724.00
2023-02-21T01:23:44.853Z,99724.00
2023-02-21T01:25:35.414Z,99715.00
2023-02-21T01:27:26.370Z,99714.00
2023-02-21T01:29:17.467Z,99709.00
2023-02-21T01:31:08.451Z,99713.00
2023-02-21T01:32:59.400Z,99709.00
2023-02-21T01:34:50.297Z,99714.00
2023-02-21T01:36:41.125Z,99711.00
2023-02-21T01:38:32.010Z,99714.00
2023-02-21T01:40:25.989Z,99704.00
2023-02-21T01:42:16.859Z,99713.00
2023-02-21T01:44:23.151Z,99712.00
2023-02-21T01:46:17.317Z,99710.00
2023-02-21T01:48:08.133Z,99712.00
2023-02-21T01:50:00.655Z,99708.00
2023-02-21T01:51:57.647Z,99713.00
2023-02-21T01:53:48.547Z,99712.00
2023-02-21T01:55:42.581Z,99708.00
2023-02-21T01:57:33.968Z,99706.00
2023-02-21T01:59:24.749Z,99698.00
2023-02-21T02:01:16.265Z,99701.00
2023-02-21T02:03:14.473Z,99697.00
2023-02-21T02:05:07.136Z,99710.00
2023-02-21T02:06:58.565Z,99703.00
2023-02-21T02:08:51.817Z,99704.00
2023-02-21T02:10:45.582Z,99699.00
2023-02-21T02:12:58.712Z,99703.00
2023-02-21T02:14:56.890Z,99706.00
2023-02-21T02:16:37.626Z,99708.00
2023-02-21T02:18:47.399Z,99706.00
2023-02-21T02:21:06.364Z,99708.00
2023-02-21T02:23:10.273Z,99701.00
2023-02-21T02:25:21.378Z,99694.00
2023-02-21T02:27:34.780Z,99701.00
2023-02-21T02:29:38.671Z,99702.00
2023-02-21T02:31:39.661Z,99697.00
2023-02-21T02:34:01.302Z,99700.00
2023-02-21T02:35:42.796Z,99692.00
2023-02-21T02:37:24.683Z,99704.00
2023-02-21T02:39:11.976Z,99690.00
2023-02-21T02:40:58.008Z,99692.00
2023-02-21T02:42:49.012Z,99702.00
2023-02-21T02:44:30.628Z,99694.00
2023-02-21T02:46:12.198Z,99695.00
2023-02-21T02:47:51.386Z,99692.00
2023-02-21T02:49:30.473Z,99702.00
2023-02-21T02:51:10.367Z,99694.00
2023-02-21T02:52:52.873Z,99696.00
2023-02-21T02:54:26.171Z,99694.00
2023-02-21T02:56:02.220Z,99686.00
2023-02-21T02:57:41.052Z,99689.00
2023-02-21T02:59:21.238Z,99696.00
2023-02-21T03:01:14.625Z,99689.00
2023-02-21T03:03:09.321Z,99686.00
2023-02-21T03:05:03.733Z,99684.00
2023-02-21T03:07:00.283Z,99682.00
2023-02-21T03:08:43.585Z,99675.00
2023-02-21T03:10:27.097Z,99684.00
2023-02-21T03:12:08.893Z,99677.00
2023-02-21T03:13:49.996Z,99677.00
2023-02-21T03:15:33.385Z,99676.00
2023-02-21T03:17:14.393Z,99675.00
2023-02-21T03:18:51.971Z,99672.00
2023-02-21T03:20:28.139Z,99669.00
2023-02-21T03:22:08.026Z,99676.00
2023-02-21T03:23:44.554Z,99665.00
2023-02-21T03:25:20.384Z,99665.00
2023-02-21T03:27:00.549Z,99671.00
2023-02-21T03:28:53.363Z,99675.00
2023-02-21T03:30:27.907Z,99672.00
2023-02-21T03:32:10.928Z,99669.00
2023-02-21T03:33:44.718Z,99675.00
2023-02-21T03:35:19.261Z,99672.00
2023-02-21T03:36:53.064Z,99669.00
2023-02-21T03:38:29.610Z,99673.00
2023-02-21T03:40:06.246Z,99666.00
2023-02-21T03:41:40.600Z,99680.00
2023-02-21T03:43:13.915Z,99669.00
2023-02-21T03:44:57.763Z,99680.00
2023-02-21T03:46:30.168Z,99676.00
2023-02-21T03:48:04.580Z,99666.00
2023-02-21T03:49:39.525Z,99680.00
2023-02-21T03:51:14.277Z,99670.00
2023-02-21T03:52:47.705Z,99671.00
2023-02-21T03:54:22.402Z,99675.00
2023-02-21T03:55:57.665Z,99664.00
2023-02-21T03:57:39.600Z,99670.00
2023-02-21T03:59:11.956Z,99666.00
2023-02-21T04:00:45.171Z,99665.00
2023-02-21T04:02:19.076Z,99664.00
2023-02-21T04:03:52.482Z,99660.00
2023-02-21T04:05:25.726Z,99673.00
2023-02-21T04:07:00.193Z,99669.00
2023-02-21T04:08:32.725Z,99669.00
2023-02-21T04:10:07.858Z,99679.00
2023-02-21T04:11:48.900Z,99667.00
2023-02-21T04:13:24.369Z,99663.00
2023-02-21T04:14:58.646Z,99681.00
2023-02-21T04:16:32.206Z,99671.00
2023-02-21T04:18:04.685Z,99675.00
2023-02-21T04:19:38.163Z,99671.00
2023-02-21T04:21:12.706Z,99666.00
2023-02-21T04:22:51.799Z,99665.00
2023-02-21T04:24:32.465Z,99659.00
2023-02-21T04:26:06.247Z,99672.00
2023-02-21T04:27:52.594Z,99677.00
2023-02-21T04:29:26.373Z,99673.00
2023-02-21T04:30:59.504Z,99665.00
2023-02-21T04:32:32.713Z,99668.00
2023-02-21T04:34:12.401Z,99671.00
2023-02-21T04:35:50.453Z,99667.00
2023-02-21T04:37:40.781Z,99665.00
2023-02-21T04:39:14.805Z,99675.00
2023-02-21T04:40:48.009Z,99665.00
2023-02-21T04:42:22.790Z,99669.00
2023-02-21T04:43:56.423Z,99674.00
2023-02-21T04:45:29.257Z,99670.00
2023-02-21T04:47:02.559Z,99659.00
2023-02-21T04:48:35.816Z,99666.00
2023-02-21T04:50:09.986Z,99655.00
2023-02-21T04:51:43.531Z,99664.00
2023-02-21T04:53:16.963Z,99652.00
2023-02-21T04:54:50.118Z,99656.00
2023-02-21T04:56:27.348Z,99647.00
2023-02-21T04:58:01.915Z,99650.00
2023-02-21T04:59:35.037Z,99646.00
2023-02-21T05:01:08.444Z,99646.00
2023-02-21T05:02:44.092Z,99647.00
2023-02-21T05:04:17.202Z,99649.00
2023-02-21T05:05:50.942Z,99658.00
2023-02-21T05:07:23.282Z,99659.00
2023-02-21T05:08:57.371Z,99664.00
2023-02-21T05:10:44.598Z,99671.00
2023-02-21T05:12:18.243Z,99661.00
2023-02-21T05:13:53.004Z,99657.00
2023-02-21T05:15:26.567Z,99653.00
2023-02-21T05:16:59.626Z,99670.00
2023-02-21T05:18:34.587Z,99658.00
2023-02-21T05:20:11.564Z,99652.00
2023-02-21T05:21:44.713Z,99650.00
2023-02-21T05:23:18.826Z,99656.00
2023-02-21T05:24:52.061Z,99647.00
2023-02-21T05:26:29.770Z,99651.00
2023-02-21T05:28:02.873Z,99648.00
2023-02-21T05:29:36.277Z,99657.00
2023-02-21T05:31:09.622Z,99661.00
2023-02-21T05:32:43.484Z,99659.00
2023-02-21T05:34:19.722Z,99660.00
2023-02-21T05:35:52.797Z,99653.00
2023-02-21T05:37:26.067Z,99658.00
2023-02-21T05:38:58.510Z,99657.00
2023-02-21T05:40:31.701Z,99658.00
2023-02-21T05:42:04.133Z,99654.00
2023-02-21T05:43:37.227Z,99659.00
2023-02-21T05:45:12.716Z,99648.00
2023-02-21T05:46:46.010Z,99659.00
2023-02-21T05:48:19.145Z,99659.00
2023-02-21T05:49:52.322Z,99662.00
2023-02-21T05:51:27.467Z,99660.00
2023-02-21T05:53:02.524Z,99661.00
2023-02-21T05:54:35.766Z,99660.00
2023-02-21T05:56:10.610Z,99659.00
2023-02-21T05:57:43.652Z,99667.00
2023-02-21T05:59:19.696Z,99665.00
2023-02-21T06:00:53.155Z,99663.00
2023-02-21T06:02:26.351Z,99664.00
2023-02-21T06:03:59.561Z,99662.00
2023-02-21T06:05:32.061Z,99667.00
2023-02-21T06:07:05.673Z,99658.00
2023-02-21T06:08:47.867Z,99665.00
2023-02-21T06:10:22.038Z,99672.00
2023-02-21T06:11:59.827Z,99659.00
2023-02-21T06:13:33.701Z,99660.00
2023-02-21T06:15:08.642Z,99666.00
2023-02-21T06:16:43.739Z,99656.00
2023-02-21T06:18:18.105Z,99663.00
2023-02-21T06:19:51.320Z,99664.00
2023-02-21T06:21:24.856Z,99653.00
2023-02-21T06:22:57.934Z,99661.00
2023-02-21T06:24:31.157Z,99664.00
2023-02-21T06:26:04.551Z,99662.00
2023-02-21T06:27:38.546Z,99659.00
2023-02-21T06:29:12.602Z,99662.00
2023-02-21T06:30:46.277Z,99674.00
2023-02-21T06:32:20.828Z,99664.00
2023-02-21T06:33:54.408Z,99661.00
2023-02-21T06:35:27.766Z,99658.00
2023-02-21T06:37:01.091Z,99658.00
2023-02-21T06:38:34.354Z,99663.00
2023-02-21T06:40:08.477Z,99659.00
2023-02-21T06:41:41.543Z,99663.00
2023-02-21T06:43:15.867Z,99656.00
2023-02-21T06:44:50.569Z,99663.00
2023-02-21T06:46:27.433Z,99654.00
2023-02-21T06:48:01.912Z,99658.00
2023-02-21T06:49:35.321Z,99655.00
2023-02-21T06:51:11.185Z,99654.00
2023-02-21T06:52:44.720Z,99652.00
2023-02-21T06:54:17.957Z,99643.00
2023-02-21T06:55:51.109Z,99643.00
2023-02-21T06:57:24.288Z,99650.00
2023-02-21T06:58:57.717Z,99646.00
2023-02-21T07:00:31.051Z,99655.00
2023-02-21T07:02:04.688Z,99654.00
2023-02-21T07:03:44.232Z,99651.00
2023-02-21T07:05:17.492Z,99653.00
2023-02-21T07:06:50.931Z,99649.00
2023-02-21T07:08:25.781Z,99649.00
2023-02-21T07:09:58.914Z,99658.00
2023-02-21T07:11:34.245Z,99647.00
2023-02-21T07:13:07.407Z,99651.00
2023-02-21T07:14:40.692Z,99656.00
2023-02-21T07:16:14.391Z,99652.00
2023-02-21T07:17:47.528Z,99663.00
2023-02-21T07:19:22.202Z,99671.00
2023-02-21T07:20:55.440Z,99656.00
2023-02-21T07:22:28.509Z,99665.00
2023-02-21T07:24:01.695Z,99665.00
2023-02-21T07:25:34.800Z,99660.00
2023-02-21T07:27:08.020Z,99668.00
2023-02-21T07:28:41.632Z,99666.00
2023-02-21T07:30:15.925Z,99656.00
2023-02-21T07:31:49.172Z,99659.00
2023-02-21T07:33:22.393Z,99661.00
2023-02-21T07:34:56.903Z,99659.00
2023-02-21T07:36:30.214Z,99652.00
2023-02-21T07:38:03.301Z,99664.00
2023-02-21T07:39:36.729Z,99659.00
2023-02-21T07:41:09.784Z,99655.00
2023-02-21T07:42:44.528Z,99663.00
2023-02-21T07:44:17.599Z,99649.00
2023-02-21T07:45:50.768Z,99657.00
2023-02-21T07:47:24.560Z,99648.00
2023-02-21T07:48:58.064Z,99652.00
2023-02-21T07:50:32.481Z,99657.00
2023-02-21T07:52:05.847Z,99652.00
2023-02-21T07:53:39.040Z,99652.00
2023-02-21T07:55:13.434Z,99650.00
2023-02-21T07:56:47.809Z,99648.00
2023-02-21T07:58:21.504Z,99661.00
2023-02-21T07:59:55.180Z,99655.00
2023-02-21T08:01:28.693Z,99660.00
2023-02-21T08:03:01.988Z,99659.00
2023-02-21T08:04:35.223Z,99655.00
2023-02-21T08:06:11.366Z,99657.00
2023-02-21T08:07:45.185Z,99653.00
2023-02-21T08:09:18.631Z,99655.00
2023-02-21T08:10:52.073Z,99654.00
2023-02-21T08:12:25.132Z,99659.00
2023-02-21T08:13:58.252Z,99656.00
2023-02-21T08:15:31.372Z,99651.00
2023-02-21T08:17:04.742Z,99655.00
2023-02-21T08:18:37.857Z,99654.00
2023-02-21T08:20:11.668Z,99652.00
2023-02-21T08:21:47.677Z,99653.00
2023-02-21T08:23:21.513Z,99654.00
2023-02-21T08:24:54.617Z,99662.00
2023-02-21T08:26:27.733Z,99661.00
2023-02-21T08:28:00.855Z,99662.00
2023-02-21T08:29:34.062Z,99658.00
2023-02-21T08:31:08.312Z,99671.00
2023-02-21T08:32:41.846Z,99662.00
2023-02-21T08:34:15.668Z,99673.00
2023-02-21T08:35:48.959Z,99665.00
2023-02-21T08:37:23.767Z,99655.00
2023-02-21T08:38:56.886Z,99659.00
2023-02-21T08:40:31.494Z,99665.00
2023-02-21T08:42:04.954Z,99653.00
2023-02-21T08:43:38.667Z,99662.00
2023-02-21T08:45:17.924Z,99666.00
2023-02-21T08:46:51.540Z,99666.00
2023-02-21T08:48:25.101Z,99662.00
2023-02-21T08:49:58.445Z,99669.00
2023-02-21T08:51:33.723Z,99667.00
2023-02-21T08:53:08.628Z,99670.00
2023-02-21T08:54:41.842Z,99672.00
2023-02-21T08:56:20.416Z,99664.00
2023-02-21T08:57:55.776Z,99664.00
2023-02-21T08:59:33.599Z,99661.00
2023-02-21T09:01:07.149Z,99671.00
2023-02-21T09:02:41.274Z,99658.00
2023-02-21T09:04:14.424Z,99663.00
2023-02-21T09:05:47.586Z,99661.00
2023-02-21T09:07:23.205Z,99654.00
2023-02-21T09:08:57.861Z,99649.00
2023-02-21T09:10:34.331Z,99657.00
2023-02-21T09:12:08.520Z,99661.00
2023-02-21T09:13:41.850Z,99650.00
2023-02-21T09:15:17.536Z,99651.00
2023-02-21T09:16:50.771Z,99660.00
2023-02-21T09:18:24.548Z,99661.00
2023-02-21T09:19:57.608Z,99658.00
2023-02-21T09:21:30.689Z,99661.00
2023-02-21T09:23:03.792Z,99655.00
2023-02-21T09:24:39.381Z,99667.00
2023-02-21T09:26:12.543Z,99662.00
2023-02-21T09:27:46.836Z,99662.00
2023-02-21T09:29:20.399Z,99666.00
2023-02-21T09:30:53.600Z,99664.00
2023-02-21T09:32:28.725Z,99665.00
2023-02-21T09:34:01.928Z,99666.00
2023-02-21T09:35:35.312Z,99665.00
2023-02-21T09:37:08.474Z,99661.00
2023-02-21T09:38:42.291Z,99667.00
2023-02-21T09:40:33.557Z,99661.00
2023-02-21T09:42:07.000Z,99654.00
2023-02-21T09:43:44.347Z,99671.00
2023-02-21T09:45:19.791Z,99655.00
2023-02-21T09:46:58.174Z,99658.00
2023-02-21T09:48:32.676Z,99655.00
2023-02-21T09:50:13.828Z,99663.00
2023-02-21T09:51:47.862Z,99647.00
2023-02-21T09:53:28.317Z,99653.00
2023-02-21T09:55:08.539Z,99652.00
2023-02-21T09:56:43.320Z,99650.00
2023-02-21T09:58:19.492Z,99651.00
2023-02-21T09:59:52.741Z,99658.00
2023-02-21T10:01:44.818Z,99660.00
2023-02-21T10:03:40.199Z,99657.00
2023-02-21T10:05:29.771Z,99656.00
2023-02-21T10:07:12.121Z,99657.00
2023-02-21T10:08:55.366Z,99659.00
2023-02-21T10:10:37.016Z,99655.00
2023-02-21T10:12:27.227Z,99655.00
2023-02-21T10:14:14.059Z,99659.00
2023-02-21T10:15:55.238Z,99659.00
2023-02-21T10:17:36.404Z,99661.00
2023-02-21T10:19:20.282Z,99667.00
2023-02-21T10:20:57.717Z,99669.00
2023-02-21T10:22:38.208Z,99666.00
2023-02-21T10:24:14.922Z,99662.00
2023-02-21T10:25:49.124Z,99673.00
2023-02-21T10:27:27.427Z,99666.00
2023-02-21T10:29:01.929Z,99671.00
2023-02-21T10:30:40.739Z,99663.00
2023-02-21T10:32:15.317Z,99673.00
2023-02-21T10:33:48.716Z,99661.00
2023-02-21T10:35:21.961Z,99670.00
2023-02-21T10:36:58.204Z,99663.00
2023-02-21T10:38:31.382Z,99668.00
2023-02-21T10:40:23.337Z,99667.00
2023-02-21T10:41:58.284Z,99671.00
2023-02-21T10:43:37.670Z,99669.00
2023-02-21T10:45:13.985Z,99668.00
2023-02-21T10:46:59.732Z,99673.00
2023-02-21T10:48:37.111Z,99663.00
2023-02-21T10:50:12.282Z,99667.00
2023-02-21T10:51:45.785Z,99665.00
2023-02-21T10:53:30.590Z,99655.00
2023-02-21T10:55:13.269Z,99662.00
2023-02-21T10:56:53.091Z,99665.00
2023-02-21T10:58:29.189Z,99662.00
2023-02-21T11:00:10.077Z,99659.00
2023-02-21T11:01:46.526Z,99662.00
2023-02-21T11:03:27.580Z,99658.00
2023-02-21T11:05:13.927Z,99662.00
2023-02-21T11:06:51.787Z,99662.00
2023-02-21T11:08:39.015Z,99662.00
2023-02-21T11:10:43.938Z,99651.00
2023-02-21T11:12:25.449Z,99659.00
2023-02-21T11:14:22.912Z,99659.00
2023-02-21T11:16:12.402Z,99646.00
2023-02-21T11:17:46.950Z,99654.00
2023-02-21T11:19:20.032Z,99658.00
2023-02-21T11:20:54.788Z,99660.00
2023-02-21T11:22:39.240Z,99656.00
2023-02-21T11:24:13.491Z,99652.00
2023-02-21T11:25:47.397Z,99662.00
2023-02-21T11:27:20.943Z,99658.00
2023-02-21T11:28:54.801Z,99652.00
2023-02-21T11:30:28.117Z,99649.00
2023-02-21T11:32:14.000Z,99656.00
2023-02-21T11:33:56.303Z,99645.00
2023-02-21T11:35:35.048Z,99644.00
2023-02-21T11:37:08.278Z,99646.00
2023-02-21T11:38:45.900Z,99648.00
2023-02-21T11:40:35.509Z,99636.00
2023-02-21T11:42:28.854Z,99642.00
2023-02-21T11:44:02.139Z,99640.00
2023-02-21T11:45:40.722Z,99641.00
2023-02-21T11:47:22.932Z,99637.00
2023-02-21T11:49:07.472Z,99629.00
2023-02-21T11:50:49.500Z,99633.00
2023-02-21T11:52:29.448Z,99630.00
2023-02-21T11:54:03.754Z,99626.00
2023-02-21T11:55:38.749Z,99626.00
2023-02-21T11:57:23.170Z,99621.00
2023-02-21T11:59:08.306Z,99627.00
2023-02-21T12:01:01.835Z,99614.00
2023-02-21T12:03:32.632Z,99625.00
2023-02-21T12:05:26.341Z,99619.00
2023-02-21T12:07:11.582Z,99611.00
2023-02-21T12:08:52.301Z,99616.00
2023-02-21T12:10:38.643Z,99607.00
2023-02-21T12:12:33.877Z,99607.00
2023-02-21T12:14:49.504Z,99610.00
2023-02-21T12:16:42.982Z,99615.00
2023-02-21T12:18:46.162Z,99611.00
2023-02-21T12:20:55.237Z,99610.00
2023-02-21T12:22:52.583Z,99598.00
2023-02-21T12:24:57.118Z,99605.00
2023-02-21T12:26:49.515Z,99591.00
2023-02-21T12:28:41.769Z,99588.00
2023-02-21T12:30:36.916Z,99584.00
2023-02-21T12:32:36.908Z,99586.00
2023-02-21T12:34:32.508Z,99585.00
2023-02-21T12:36:27.422Z,99582.00
2023-02-21T12:38:09.888Z,99580.00
2023-02-21T12:40:04.854Z,99578.00
2023-02-21T12:42:04.083Z,99575.00
2023-02-21T12:43:57.690Z,99572.00
2023-02-21T12:45:48.549Z,99571.00
2023-02-21T12:47:30.461Z,99570.00
2023-02-21T12:49:10.217Z,99563.00
2023-02-21T12:50:51.974Z,99568.00
2023-02-21T12:52:31.432Z,99565.00
2023-02-21T12:54:09.712Z,99564.00
2023-02-21T12:55:48.831Z,99553.00
2023-02-21T12:57:32.076Z,99561.00
2023-02-21T12:59:16.875Z,99549.00
2023-02-21T13:00:59.693Z,99555.00
2023-02-21T13:02:45.316Z,99550.00
2023-02-21T13:04:36.267Z,99549.00
2023-02-21T13:06:21.012Z,99544.00
2023-02-21T13:08:02.440Z,99554.00
2023-02-21T13:09:39.167Z,99540.00
2023-02-21T13:11:18.578Z,99529.00
2023-02-21T13:13:00.019Z,99543.00
2023-02-21T13:14:41.257Z,99535.00
2023-02-21T13:16:15.592Z,99534.00
2023-02-21T13:18:01.341Z,99536.00
2023-02-21T13:19:43.945Z,99538.00
2023-02-21T13:21:34.736Z,99534.00
2023-02-21T13:23:27.185Z,99529.00
2023-02-21T13:25:36.059Z,99529.00
2023-02-21T13:27:50.588Z,99523.00
2023-02-21T13:29:29.374Z,99519.00
2023-02-21T13:31:05.873Z,99516.00
2023-02-21T13:32:41.108Z,99522.00
2023-02-21T13:34:20.885Z,99518.00
2023-02-21T13:35:57.230Z,99509.00
2023-02-21T13:37:36.387Z,99508.00
2023-02-21T13:39:16.598Z,99510.00
2023-02-21T13:40:55.421Z,99504.00
2023-02-21T13:42:31.428Z,99502.00
2023-02-21T13:44:11.403Z,99502.00
2023-02-21T13:45:45.615Z,99498.00
2023-02-21T13:47:21.622Z,99504.00
2023-02-21T13:49:47.736Z,99498.00
2023-02-21T13:51:47.072Z,99495.00
2023-02-21T13:53:23.742Z,99493.00
2023-02-21T13:55:27.313Z,99499.00
2023-02-21T13:57:04.475Z,99501.00
2023-02-21T13:58:40.096Z,99488.00
2023-02-21T14:00:52.194Z,99497.00
2023-02-21T14:02:32.650Z,99490.00
2023-02-21T14:05:01.467Z,99492.00
2023-02-21T14:06:37.780Z,99491.00
2023-02-21T14:08:15.794Z,99491.00
2023-02-21T14:09:50.405Z,99496.00
2023-02-21T14:11:28.810Z,99490.00
2023-02-21T14:13:21.558Z,99489.00
2023-02-21T14:15:07.701Z,99493.00
2023-02-21T14:16:50.630Z,99490.00
2023-02-21T14:18:30.237Z,99490.00
2023-02-21T14:20:05.968Z,99486.00
2023-02-21T14:21:45.788Z,99480.00
2023-02-21T14:23:23.233Z,99484.00
2023-02-21T14:25:16.900Z,99477.00
2023-02-21T14:26:55.390Z,99477.00
2023-02-21T14:28:52.057Z,99479.00
2023-02-21T14:30:34.919Z,99486.00
2023-02-21T14:32:36.694Z,99474.00
2023-02-21T14:34:12.822Z,99480.00
2023-02-21T14:35:57.748Z,99474.00
2023-02-21T14:37:37.617Z,99480.00
2023-02-21T14:39:11.016Z,99469.00
2023-02-21T14:41:01.111Z,99469.00
2023-02-21T14:43:04.746Z,99468.00
2023-02-21T14:44:50.464Z,99473.00
2023-02-21T14:46:51.586Z,99466.00
2023-02-21T14:48:54.214Z,99468.00
2023-02-21T14:50:43.184Z,99479.00
2023-02-21T14:52:49.809Z,99467.00
2023-02-21T14:54:59.990Z,99469.00
2023-02-21T14:57:03.808Z,99464.00
2023-02-21T14:59:26.215Z,99471.00
2023-02-21T15:01:11.533Z,99462.00
2023-02-21T15:02:53.999Z,99459.00
2023-02-21T15:04:38.410Z,99468.00
2023-02-21T15:06:19.113Z,99468.00
2023-02-21T15:08:00.598Z,99463.00
2023-02-21T15:09:34.028Z,99466.00
2023-02-21T15:11:28.779Z,99457.00
2023-02-21T15:13:06.684Z,99455.00
2023-02-21T15:14:49.474Z,99464.00
2023-02-21T15:16:22.856Z,99467.00
2023-02-21T15:18:05.525Z,99453.00
2023-02-21T15:19:38.783Z,99464.00
2023-02-21T15:21:19.368Z,99460.00
2023-02-21T15:23:03.302Z,99464.00
2023-02-21T15:24:36.637Z,99460.00
2023-02-21T15:26:21.781Z,99463.00
2023-02-21T15:28:03.921Z,99451.00
2023-02-21T15:29:37.253Z,99466.00
2023-02-21T15:31:12.834Z,99469.00
2023-02-21T15:32:56.159Z,99465.00
2023-02-21T15:34:34.958Z,99460.00
2023-02-21T15:36:17.615Z,99465.00
2023-02-21T15:37:51.175Z,99466.00
2023-02-21T15:39:30.983Z,99462.00
2023-02-21T15:41:10.952Z,99458.00
2023-02-21T15:42:46.235Z,99458.00
2023-02-21T15:44:26.632Z,99452.00
2023-02-21T15:46:04.991Z,99451.00
2023-02-21T15:47:38.799Z,99445.00
2023-02-21T15:49:21.348Z,99447.00
2023-02-21T15:50:54.997Z,99442.00
2023-02-21T15:52:35.438Z,99446.00
2023-02-21T15:54:24.189Z,99436.00
2023-02-21T15:56:19.976Z,99432.00
2023-02-21T15:58:02.579Z,99437.00
2023-02-21T15:59:37.384Z,99438.00
2023-02-21T16:01:13.230Z,99433.00
2023-02-21T16:02:46.525Z,99431.00
2023-02-21T16:04:25.673Z,99424.00
2023-02-21T16:06:17.956Z,99429.00
2023-02-21T16:07:54.101Z,99427.00
2023-02-21T16:09:31.344Z,99420.00
2023-02-21T16:11:05.839Z,99432.00
2023-02-21T16:12:43.419Z,99425.00
2023-02-21T16:14:21.623Z,99437.00
2023-02-21T16:16:01.226Z,99422.00
2023-02-21T16:17:37.711Z,99427.00
2023-02-21T16:19:11.340Z,99432.00
2023-02-21T16:20:46.295Z,99424.00
2023-02-21T16:22:30.802Z,99429.00
2023-02-21T16:24:27.927Z,99432.00
2023-02-21T16:26:04.565Z,99428.00
2023-02-21T16:27:38.611Z,99430.00
2023-02-21T16:29:11.632Z,99431.00
2023-02-21T16:30:45.043Z,99428.00
2023-02-21T16:32:22.388Z,99428.00
2023-02-21T16:33:56.039Z,99433.00
2023-02-21T16:35:29.897Z,99436.00
2023-02-21T16:37:06.445Z,99427.00
2023-02-21T16:38:39.589Z,99422.00
2023-02-21T16:40:16.248Z,99436.00
2023-02-21T16:41:49.719Z,99419.00
2023-02-21T16:43:27.297Z,99434.00
2023-02-21T16:45:00.560Z,99430.00
2023-02-21T16:46:33.883Z,99425.00
2023-02-21T16:48:09.055Z,99421.00
2023-02-21T16:49:42.266Z,99426.00
2023-02-21T16:51:15.755Z,99436.00
2023-02-21T16:52:49.384Z,99431.00
2023-02-21T16:54:22.493Z,99429.00
2023-02-21T16:55:57.368Z,99428.00
2023-02-21T16:57:30.344Z,99423.00
2023-02-21T16:59:04.998Z,99434.00
2023-02-21T17:00:38.139Z,99432.00
2023-02-21T17:02:15.462Z,99429.00
2023-02-21T17:03:50.725Z,99428.00
2023-02-21T17:05:25.692Z,99424.00
2023-02-21T17:07:03.508Z,99429.00
2023-02-21T17:08:36.629Z,99429.00
2023-02-21T17:10:10.716Z,99423.00
2023-02-21T17:11:43.804Z,99433.00
2023-02-21T17:13:16.937Z,99430.00
2023-02-21T17:14:50.056Z,99424.00
2023-02-21T17:16:23.155Z,99434.00
2023-02-21T17:17:56.331Z,99433.00
2023-02-21T17:19:30.696Z,99436.00
2023-02-21T17:21:05.544Z,99434.00
2023-02-21T17:22:38.600Z,99445.00
2023-02-21T17:24:14.339Z,99438.00
2023-02-21T17:25:47.438Z,99438.00
2023-02-21T17:27:20.608Z,99439.00
2023-02-21T17:28:53.725Z,99439.00
2023-02-21T17:30:27.208Z,99439.00
2023-02-21T17:32:06.770Z,99440.00
2023-02-21T17:33:41.264Z,99449.00
2023-02-21T17:35:16.538Z,99445.00
2023-02-21T17:36:50.664Z,99446.00
2023-02-21T17:38:23.976Z,99447.00
2023-02-21T17:39:58.305Z,99447.00
2023-02-21T17:41:31.530Z,99446.00
2023-02-21T17:43:08.834Z,99446.00
2023-02-21T17:44:47.120Z,99445.00
2023-02-21T17:46:21.784Z,99437.00
2023-02-21T17:47:55.335Z,99452.00
2023-02-21T17:49:29.872Z,99450.00
2023-02-21T17:51:08.198Z,99442.00
2023-02-21T17:52:41.858Z,99444.00
2023-02-21T17:54:15.633Z,99448.00
2023-02-21T17:55:49.005Z,99447.00
2023-02-21T17:57:22.553Z,99438.00
2023-02-21T17:58:57.213Z,99448.00
2023-02-21T18:00:34.228Z,99447.00
2023-02-21T18:02:08.921Z,99449.00
2023-02-21T18:03:42.066Z,99441.00
2023-02-21T18:05:15.405Z,99450.00
2023-02-21T18:06:49.907Z,99446.00
2023-02-21T18:08:23.333Z,99443.00
2023-02-21T18:09:56.548Z,99445.00
2023-02-21T18:11:30.031Z,99458.00
2023-02-21T18:13:03.183Z,99453.00
2023-02-21T18:14:36.356Z,99452.00
2023-02-21T18:16:10.129Z,99454.00
2023-02-21T18:17:43.316Z,99449.00
2023-02-21T18:19:16.911Z,99445.00
2023-02-21T18:20:50.080Z,99442.00
2023-02-21T18:22:24.581Z,99452.00
2023-02-21T18:23:57.772Z,99448.00
2023-02-21T18:25:31.030Z,99446.00
2023-02-21T18:27:04.547Z,99442.00
2023-02-21T18:28:38.161Z,99442.00
2023-02-21T18:30:12.651Z,99448.00
2023-02-21T18:31:45.801Z,99451.00
2023-02-21T18:33:19.438Z,99450.00
2023-02-21T18:34:52.836Z,99449.00
2023-02-21T18:36:26.502Z,99455.00
2023-02-21T18:38:01.015Z,99444.00
2023-02-21T18:39:34.181Z,99437.00
2023-02-21T18:41:12.176Z,99447.00
2023-02-21T18:42:47.506Z,99442.00
2023-02-21T18:44:20.936Z,99438.00
2023-02-21T18:45:57.139Z,99447.00
2023-02-21T18:47:31.890Z,99445.00
2023-02-21T18:49:05.921Z,99439.00
2023-02-21T18:50:39.119Z,99445.00
2023-02-21T18:52:13.064Z,99437.00
2023-02-21T18:53:48.268Z,99434.00
2023-02-21T18:55:21.585Z,99437.00
2023-02-21T18:56:54.744Z,99428.00
2023-02-21T18:58:28.013Z,99431.00
2023-02-21T19:00:01.182Z,99422.00
2023-02-21T19:01:34.498Z,99425.00
2023-02-21T19:03:10.468Z,99420.00
2023-02-21T19:04:44.197Z,99427.00
2023-02-21T19:06:20.558Z,99427.00
2023-02-21T19:07:54.536Z,99422.00
2023-02-21T19:09:28.952Z,99425.00
2023-02-21T19:11:02.198Z,99416.00
2023-02-21T19:12:35.488Z,99425.00
2023-02-21T19:14:08.777Z,99417.00
2023-02-21T19:15:42.216Z,99425.00
2023-02-21T19:17:15.551Z,99423.00
2023-02-21T19:18:51.271Z,99429.00
2023-02-21T19:20:24.452Z,99422.00
2023-02-21T19:21:57.879Z,99421.00
2023-02-21T19:23:31.016Z,99415.00
2023-02-21T19:25:06.801Z,99419.00
2023-02-21T19:26:42.990Z,99426.00
2023-02-21T19:28:16.617Z,99419.00
2023-02-21T19:29:49.956Z,99420.00
2023-02-21T19:31:23.513Z,99417.00
2023-02-21T19:32:59.038Z,99413.00
2023-02-21T19:34:32.331Z,99413.00
2023-02-21T19:36:06.729Z,99414.00